Time;durP1;ratioP1;P1;durP2;ratioP2;P2;SDS_P1;SDS_P2;PMS_P1;PMS_P2;Temp;Humidity;BMP_temperature;BMP_pressure;BME280_temperature;BME280_humidity;BME280_pressure;Samples;Min_cycle;Max_cycle;Signal;HPM_P1;HPM_P2
2022/10/31 00:00:00;;;;;;;22.55;13.15;;;12.20;96.20;;;;;;5079243;28;20131;-82
2022/10/31 00:02:26;;;;;;;24.40;14.18;;;12.10;96.10;;;;;;5062727;28;20036;-85
2022/10/31 00:04:52;;;;;;;29.23;16.63;;;12.10;96.20;;;;;;5079197;28;20039;-84
2022/10/31 00:07:18;;;;;;;25.38;13.57;;;12.10;96.20;;;;;;5096046;28;20545;-82
2022/10/31 00:09:43;;;;;;;24.55;14.05;;;12.10;96.20;;;;;;5062808;28;20122;-82
2022/10/31 00:12:09;;;;;;;22.27;13.73;;;12.10;96.30;;;;;;5079262;28;20035;-80
2022/10/31 00:14:34;;;;;;;25.15;14.75;;;12.10;96.30;;;;;;5079577;28;20051;-85
2022/10/31 00:17:00;;;;;;;25.08;14.68;;;12.10;96.10;;;;;;5096284;28;20476;-82
2022/10/31 00:19:26;;;;;;;23.08;13.50;;;12.00;96.50;;;;;;5079535;28;20036;-85
2022/10/31 00:21:52;;;;;;;25.52;15.27;;;12.10;96.50;;;;;;5073869;28;20106;-84
2022/10/31 00:24:18;;;;;;;25.75;15.07;;;12.10;96.60;;;;;;5076155;28;20392;-83
2022/10/31 00:26:43;;;;;;;25.85;16.10;;;12.00;96.50;;;;;;5075884;28;20036;-82
2022/10/31 00:29:10;;;;;;;24.90;15.93;;;12.10;96.70;;;;;;5093094;28;20032;-82
2022/10/31 00:31:36;;;;;;;33.22;17.70;;;12.10;96.80;;;;;;5075748;28;20056;-83
2022/10/31 00:34:02;;;;;;;28.42;17.27;;;12.10;96.70;;;;;;5075859;28;20570;-82
2022/10/31 00:36:48;;;;;;;27.55;15.45;;;12.00;96.70;;;;;;5060025;28;20399;-83
2022/10/31 00:39:17;;;;;;;29.10;16.88;;;12.00;96.80;;;;;;5082266;28;20052;-82
2022/10/31 00:41:43;;;;;;;27.05;16.73;;;12.10;96.80;;;;;;5059206;28;20043;-82
2022/10/31 00:44:34;;;;;;;34.33;17.70;;;12.10;96.70;;;;;;5059274;28;20078;-81
2022/10/31 00:47:02;;;;;;;26.83;15.57;;;12.00;96.70;;;;;;5060041;28;20048;-82
2022/10/31 00:49:28;;;;;;;27.20;16.85;;;12.00;96.70;;;;;;5059181;28;20288;-81
2022/10/31 00:51:54;;;;;;;33.60;18.27;;;12.00;96.60;;;;;;5075271;28;20044;-83
2022/10/31 00:54:19;;;;;;;25.52;16.95;;;12.00;96.60;;;;;;5058753;28;20040;-82
2022/10/31 00:56:45;;;;;;;28.83;18.17;;;12.10;96.70;;;;;;5093733;28;20051;-82
2022/10/31 00:59:11;;;;;;;23.70;14.98;;;12.10;96.60;;;;;;5062207;28;20050;-81
2022/10/31 01:01:37;;;;;;;24.88;17.08;;;12.10;96.60;;;;;;5078652;28;20075;-83
2022/10/31 01:04:02;;;;;;;22.92;15.88;;;12.10;96.80;;;;;;5082550;28;20096;-84
2022/10/31 01:06:28;;;;;;;27.60;16.48;;;12.10;96.70;;;;;;5099606;28;20122;-82
2022/10/31 01:08:54;;;;;;;23.50;16.23;;;12.10;96.80;;;;;;5082900;28;20122;-85
2022/10/31 01:11:22;;;;;;;17.25;13.52;;;12.10;96.70;;;;;;5099592;28;20126;-82
2022/10/31 01:13:50;;;;;;;23.27;14.65;;;12.10;96.60;;;;;;5078613;28;20071;-81
2022/10/31 01:16:21;;;;;;;22.45;13.68;;;12.10;96.60;;;;;;5080077;28;20097;-83
2022/10/31 01:18:47;;;;;;;16.77;11.27;;;12.10;96.50;;;;;;5080132;28;20047;-83
2022/10/31 01:21:15;;;;;;;19.75;13.93;;;12.00;96.40;;;;;;5062388;28;20043;-83
2022/10/31 01:23:41;;;;;;;23.40;13.43;;;12.00;96.40;;;;;;5078976;28;20036;-81
2022/10/31 01:26:13;;;;;;;17.88;12.65;;;12.00;96.30;;;;;;5079393;28;20040;-82
2022/10/31 01:28:47;;;;;;;18.95;13.45;;;12.00;96.20;;;;;;5085344;28;20035;-82
2022/10/31 01:31:13;;;;;;;19.65;13.35;;;11.90;96.10;;;;;;5099085;28;20059;-81
2022/10/31 01:33:39;;;;;;;23.98;14.68;;;11.90;96.20;;;;;;5066976;28;20040;-80
2022/10/31 01:36:23;;;;;;;21.23;13.07;;;11.90;96.10;;;;;;5100335;28;20130;-82
2022/10/31 01:38:50;;;;;;;16.58;13.02;;;11.80;96.10;;;;;;5100361;28;20043;-82
2022/10/31 01:41:20;;;;;;;18.90;12.60;;;11.80;96.00;;;;;;5083836;28;20039;-80
2022/10/31 01:43:50;;;;;;;19.63;12.95;;;11.80;96.10;;;;;;5099934;28;20032;-80
2022/10/31 01:46:24;;;;;;;15.13;11.10;;;11.70;96.00;;;;;;5099431;28;20047;-82
2022/10/31 01:48:52;;;;;;;17.95;12.38;;;11.70;95.70;;;;;;5099961;28;20044;-82
2022/10/31 01:51:22;;;;;;;16.88;12.70;;;11.60;95.70;;;;;;5083009;28;20039;-81
2022/10/31 01:53:49;;;;;;;18.42;13.07;;;11.60;95.80;;;;;;5116661;28;20078;-79
2022/10/31 01:56:16;;;;;;;17.10;13.02;;;11.60;95.70;;;;;;5116821;28;20043;-81
2022/10/31 01:58:44;;;;;;;18.38;11.25;;;11.50;95.60;;;;;;5083318;28;20047;-82
2022/10/31 02:01:11;;;;;;;14.43;11.23;;;11.50;95.50;;;;;;5087591;28;20047;-82
2022/10/31 02:03:37;;;;;;;13.57;11.23;;;11.40;95.50;;;;;;5079779;28;20048;-80
2022/10/31 02:06:10;;;;;;;13.82;11.93;;;11.30;95.30;;;;;;5046490;28;20123;-81
2022/10/31 02:08:37;;;;;;;14.77;10.77;;;11.20;95.30;;;;;;5079683;28;20123;-82
2022/10/31 02:11:03;;;;;;;21.17;10.70;;;11.10;95.00;;;;;;5046501;28;20047;-82
2022/10/31 02:13:29;;;;;;;16.05;11.50;;;11.00;95.00;;;;;;5078184;28;20127;-83
2022/10/31 02:15:58;;;;;;;12.65;9.57;;;11.00;95.00;;;;;;5078093;28;20119;-84
2022/10/31 02:18:27;;;;;;;14.48;11.25;;;11.00;95.10;;;;;;5094914;28;20039;-83
2022/10/31 02:21:04;;;;;;;12.18;9.18;;;11.00;95.10;;;;;;5094785;28;20052;-82
2022/10/31 02:24:15;;;;;;;17.52;13.40;;;11.00;95.00;;;;;;5077810;28;20036;-82
2022/10/31 02:26:49;;;;;;;19.58;12.65;;;11.00;95.10;;;;;;5077743;28;20032;-86
2022/10/31 02:29:46;;;;;;;21.20;14.75;;;11.00;95.20;;;;;;5077596;28;20044;-85
2022/10/31 02:32:26;;;;;;;19.02;14.43;;;11.00;95.20;;;;;;5077502;28;20044;-84
2022/10/31 02:34:58;;;;;;;18.17;11.93;;;11.00;95.20;;;;;;5095493;28;20587;-85
2022/10/31 02:38:07;;;;;;;17.67;12.55;;;11.00;95.20;;;;;;5115009;28;20035;-82
2022/10/31 02:40:47;;;;;;;15.48;12.15;;;11.00;95.00;;;;;;5113647;28;20054;-82
2022/10/31 02:43:40;;;;;;;17.42;12.23;;;11.00;95.10;;;;;;5097479;28;20076;-82
2022/10/31 02:46:47;;;;;;;20.88;13.15;;;11.00;95.00;;;;;;5114771;28;20043;-84
2022/10/31 02:49:35;;;;;;;14.25;10.57;;;10.90;95.00;;;;;;5113787;28;20390;-84
2022/10/31 02:52:01;;;;;;;21.95;14.40;;;11.00;95.10;;;;;;5100330;28;20044;-83
2022/10/31 02:54:28;;;;;;;19.33;12.93;;;11.00;95.10;;;;;;5076795;28;20039;-86
2022/10/31 02:57:03;;;;;;;15.88;12.63;;;11.00;94.90;;;;;;5076796;28;20044;-86
2022/10/31 02:59:31;;;;;;;18.23;13.25;;;10.90;94.90;;;;;;5077299;28;20432;-85
2022/10/31 03:02:28;;;;;;;14.95;11.68;;;10.80;94.60;;;;;;5060476;28;20079;-85
2022/10/31 03:05:37;;;;;;;16.98;12.68;;;10.70;94.50;;;;;;5025107;28;20051;-85
2022/10/31 03:08:29;;;;;;;20.73;12.70;;;10.70;94.70;;;;;;5095348;28;20039;-84
2022/10/31 03:10:59;;;;;;;17.92;11.63;;;10.60;94.70;;;;;;5097157;28;20047;-81
2022/10/31 03:13:56;;;;;;;13.43;10.45;;;10.60;94.60;;;;;;5114232;28;20369;-83
2022/10/31 03:16:30;;;;;;;17.35;12.80;;;10.50;94.60;;;;;;5097018;28;20127;-82
2022/10/31 03:19:04;;;;;;;;;;;10.50;94.70;;;;;;5097305;28;20040;-86
2022/10/31 03:21:45;;;;;;;18.10;11.98;;;10.50;94.40;;;;;;5096807;28;20368;-83
2022/10/31 03:24:14;;;;;;;16.02;11.27;;;10.50;94.60;;;;;;5076775;28;20109;-86
2022/10/31 03:26:46;;;;;;;17.23;13.32;;;10.50;94.60;;;;;;5092669;28;20503;-85
2022/10/31 03:29:16;;;;;;;15.90;12.55;;;10.50;94.70;;;;;;5093281;28;20040;-86
2022/10/31 03:32:02;;;;;;;22.70;15.07;;;10.50;94.80;;;;;;5093062;28;20194;-85
2022/10/31 03:34:30;;;;;;;19.85;14.88;;;10.60;95.00;;;;;;5076168;28;20501;-85
2022/10/31 03:37:00;;;;;;;26.45;18.00;;;10.60;95.10;;;;;;5076292;28;20075;-85
2022/10/31 03:39:26;;;;;;;20.42;15.07;;;10.60;95.20;;;;;;5092710;28;20096;-84
2022/10/31 03:42:04;;;;;;;18.17;13.20;;;10.60;95.20;;;;;;5042874;28;20199;-84
2022/10/31 03:44:32;;;;;;;28.10;17.33;;;10.60;95.20;;;;;;5093447;28;20036;-83
2022/10/31 03:46:58;;;;;;;25.27;16.00;;;10.70;95.20;;;;;;5076561;28;20044;-82
2022/10/31 03:49:24;;;;;;;23.75;16.98;;;10.70;95.30;;;;;;5059611;28;20047;-83
2022/10/31 03:52:02;;;;;;;21.73;16.85;;;10.60;95.30;;;;;;5076277;28;20036;-81
2022/10/31 03:54:42;;;;;;;20.45;14.60;;;10.60;95.40;;;;;;5076109;28;20576;-83
2022/10/31 03:57:35;;;;;;;24.13;16.83;;;10.70;95.40;;;;;;5076174;28;20078;-82
2022/10/31 04:00:12;;;;;;;21.45;15.60;;;10.60;95.60;;;;;;5075589;28;20490;-85
2022/10/31 04:02:42;;;;;;;24.38;16.70;;;10.60;95.70;;;;;;5075938;28;20050;-86
2022/10/31 04:05:10;;;;;;;23.75;16.02;;;10.50;95.80;;;;;;5076105;28;20039;-86
2022/10/31 04:07:41;;;;;;;21.08;16.65;;;10.60;95.80;;;;;;5075714;28;20119;-85
2022/10/31 04:10:09;;;;;;;23.02;16.70;;;10.50;95.80;;;;;;5075620;28;20043;-84
2022/10/31 04:12:37;;;;;;;21.95;15.93;;;10.50;95.80;;;;;;5081071;28;20040;-83
2022/10/31 04:15:05;;;;;;;23.38;17.35;;;10.50;95.80;;;;;;5095929;28;20035;-84
2022/10/31 04:17:36;;;;;;;28.05;18.77;;;10.50;95.70;;;;;;5096571;28;20036;-86
2022/10/31 04:20:02;;;;;;;25.85;17.98;;;10.50;95.70;;;;;;5096004;28;20070;-84
2022/10/31 04:22:28;;;;;;;22.05;15.65;;;10.50;95.70;;;;;;5113324;28;20036;-87
2022/10/31 04:24:54;;;;;;;27.05;17.25;;;10.50;95.70;;;;;;5096624;28;20074;-83
2022/10/31 04:27:20;;;;;;;25.63;16.75;;;10.50;95.80;;;;;;5079369;28;20131;-84
2022/10/31 04:29:45;;;;;;;26.38;16.67;;;10.40;95.80;;;;;;5058687;28;20032;-83
2022/10/31 04:32:11;;;;;;;25.70;15.90;;;10.40;95.80;;;;;;5091928;28;20047;-83
2022/10/31 04:34:37;;;;;;;25.90;15.65;;;10.40;95.80;;;;;;5096034;28;20032;-87
2022/10/31 04:37:02;;;;;;;23.63;16.13;;;10.30;95.60;;;;;;5064348;28;20039;-84
2022/10/31 04:39:28;;;;;;;21.33;15.50;;;10.20;95.50;;;;;;5066686;28;20396;-83
2022/10/31 04:41:54;;;;;;;26.92;17.15;;;10.20;95.40;;;;;;5082665;28;20498;-85
2022/10/31 04:44:20;;;;;;;21.88;16.13;;;10.20;95.50;;;;;;5100042;28;20462;-84
2022/10/31 04:46:46;;;;;;;23.48;17.50;;;10.10;95.50;;;;;;5099935;28;20031;-83
2022/10/31 04:49:11;;;;;;;25.58;16.90;;;10.10;95.70;;;;;;5082804;28;20050;-83
2022/10/31 04:51:37;;;;;;;24.73;17.40;;;10.10;95.80;;;;;;5082950;28;20088;-84
2022/10/31 04:54:03;;;;;;;23.60;16.83;;;10.20;95.80;;;;;;5099774;28;20043;-84
2022/10/31 04:56:29;;;;;;;21.15;16.50;;;10.20;95.80;;;;;;5079273;28;20036;-81
2022/10/31 04:58:55;;;;;;;28.52;18.77;;;10.20;95.70;;;;;;5046473;28;20113;-84
2022/10/31 05:01:20;;;;;;;25.17;18.38;;;10.20;95.80;;;;;;5062501;28;20481;-84
2022/10/31 05:03:46;;;;;;;20.85;15.40;;;10.20;95.80;;;;;;5062652;28;20036;-84
2022/10/31 05:06:12;;;;;;;21.55;15.80;;;10.20;95.80;;;;;;5046007;28;20028;-87
2022/10/31 05:08:37;;;;;;;18.10;15.27;;;10.30;95.80;;;;;;5062471;28;20083;-87
2022/10/31 05:11:04;;;;;;;28.60;19.40;;;10.20;95.70;;;;;;5079188;28;20036;-85
2022/10/31 05:13:30;;;;;;;27.45;20.20;;;10.20;95.80;;;;;;5089240;28;20039;-82
2022/10/31 05:15:56;;;;;;;26.90;19.15;;;10.20;95.90;;;;;;5099250;28;20104;-82
2022/10/31 05:18:22;;;;;;;26.52;18.90;;;10.20;95.90;;;;;;5082670;28;20122;-81
2022/10/31 05:20:48;;;;;;;31.20;20.50;;;10.20;96.00;;;;;;5099710;28;20040;-81
2022/10/31 05:23:13;;;;;;;29.83;20.25;;;10.20;95.90;;;;;;5082485;28;20442;-82
2022/10/31 05:25:40;;;;;;;30.90;20.58;;;10.20;96.00;;;;;;5082256;28;20504;-81
2022/10/31 05:28:06;;;;;;;26.95;18.77;;;10.30;96.00;;;;;;5077131;28;20040;-85
2022/10/31 05:30:32;;;;;;;30.05;22.13;;;10.20;96.00;;;;;;5045647;28;20052;-85
2022/10/31 05:32:58;;;;;;;21.33;17.70;;;10.20;96.00;;;;;;5078626;28;20047;-85
2022/10/31 05:35:27;;;;;;;28.10;18.70;;;10.30;96.00;;;;;;5062009;28;20485;-83
2022/10/31 05:37:53;;;;;;;25.40;18.45;;;10.30;96.10;;;;;;5078633;28;20057;-84
2022/10/31 05:40:20;;;;;;;25.33;16.77;;;10.30;96.20;;;;;;5078746;28;20153;-83
2022/10/31 05:42:46;;;;;;;31.67;21.63;;;10.30;96.10;;;;;;5046653;28;20127;-84
2022/10/31 05:45:14;;;;;;;29.48;20.83;;;10.30;96.20;;;;;;5081996;28;20035;-85
2022/10/31 05:47:40;;;;;;;30.52;21.50;;;10.30;96.20;;;;;;5098230;28;20065;-82
2022/10/31 05:50:07;;;;;;;27.85;21.63;;;10.30;96.20;;;;;;5097934;28;20035;-84
2022/10/31 05:52:33;;;;;;;36.88;27.63;;;10.30;96.20;;;;;;5060795;28;20131;-83
2022/10/31 05:54:59;;;;;;;40.88;33.00;;;10.30;96.20;;;;;;5078020;28;20127;-84
2022/10/31 05:57:25;;;;;;;33.65;24.30;;;10.30;96.20;;;;;;5078250;28;20044;-85
2022/10/31 05:59:53;;;;;;;26.88;21.95;;;10.30;96.20;;;;;;5077888;28;20067;-84
2022/10/31 06:02:20;;;;;;;27.83;22.02;;;10.30;96.10;;;;;;5082475;28;20032;-83
2022/10/31 06:04:45;;;;;;;29.17;21.08;;;10.30;96.10;;;;;;5077950;28;20039;-86
2022/10/31 06:07:11;;;;;;;26.13;19.80;;;10.30;96.00;;;;;;5061647;28;20040;-86
2022/10/31 06:09:37;;;;;;;23.35;17.33;;;10.20;95.70;;;;;;5077960;28;20464;-86
2022/10/31 06:12:03;;;;;;;21.95;17.58;;;10.10;95.60;;;;;;5077326;28;20040;-84
2022/10/31 06:14:28;;;;;;;26.58;18.25;;;10.10;95.60;;;;;;5077966;28;20040;-83
2022/10/31 06:16:55;;;;;;;23.92;17.75;;;10.00;95.50;;;;;;5078051;28;20032;-86
2022/10/31 06:19:21;;;;;;;22.42;17.27;;;9.90;95.40;;;;;;5078321;28;20044;-87
2022/10/31 06:21:47;;;;;;;27.08;19.95;;;9.90;95.50;;;;;;5061147;28;20451;-82
2022/10/31 06:24:13;;;;;;;26.95;21.70;;;9.90;95.60;;;;;;5061122;28;20036;-84
2022/10/31 06:26:39;;;;;;;32.67;21.73;;;9.90;95.70;;;;;;5077265;28;20051;-86
2022/10/31 06:29:04;;;;;;;27.15;19.83;;;9.90;95.70;;;;;;5071323;28;20042;-84
2022/10/31 06:31:30;;;;;;;22.73;17.67;;;9.90;95.80;;;;;;5060169;28;20382;-86
2022/10/31 06:33:56;;;;;;;25.85;19.48;;;9.90;95.60;;;;;;5060845;28;20075;-85
2022/10/31 06:36:22;;;;;;;25.00;18.02;;;9.80;95.60;;;;;;5060687;28;20507;-85
2022/10/31 06:38:48;;;;;;;27.08;21.40;;;9.70;95.60;;;;;;5077981;28;20131;-80
2022/10/31 06:41:13;;;;;;;26.83;21.92;;;9.70;95.70;;;;;;5060698;28;20370;-83
2022/10/31 06:43:39;;;;;;;19.35;15.57;;;9.70;95.80;;;;;;5094156;28;20040;-84
2022/10/31 06:46:05;;;;;;;36.88;23.55;;;9.80;95.90;;;;;;5044510;28;20040;-84
2022/10/31 06:48:32;;;;;;;27.05;20.40;;;9.80;96.00;;;;;;5094210;28;20036;-83
2022/10/31 06:51:01;;;;;;;32.35;23.10;;;9.80;96.00;;;;;;5097282;28;20040;-83
2022/10/31 06:53:29;;;;;;;20.85;16.15;;;9.80;96.10;;;;;;5097350;28;20480;-85
2022/10/31 06:55:59;;;;;;;32.30;22.35;;;9.80;96.00;;;;;;5097486;28;20062;-82
2022/10/31 06:58:24;;;;;;;26.08;20.83;;;9.70;95.90;;;;;;5096153;28;20039;-83
2022/10/31 07:00:50;;;;;;;25.63;19.52;;;9.80;96.00;;;;;;5062619;28;20039;-82
2022/10/31 07:03:16;;;;;;;31.33;22.80;;;9.80;96.00;;;;;;5074416;28;20042;-84
2022/10/31 07:05:42;;;;;;;28.58;21.08;;;9.80;95.90;;;;;;5060296;28;20090;-86
2022/10/31 07:08:11;;;;;;;26.15;20.67;;;9.80;95.90;;;;;;5077205;28;20134;-85
2022/10/31 07:10:38;;;;;;;28.38;21.65;;;9.80;95.90;;;;;;5091859;28;20046;-86
2022/10/31 07:13:06;;;;;;;30.25;22.10;;;9.70;95.80;;;;;;5093291;28;20071;-83
2022/10/31 07:15:38;;;;;;;24.65;20.67;;;9.70;95.90;;;;;;5093559;28;20040;-83
2022/10/31 07:18:06;;;;;;;26.92;20.98;;;9.70;95.80;;;;;;5079177;28;20069;-84
2022/10/31 07:20:32;;;;;;;24.50;17.65;;;9.70;95.70;;;;;;5076783;28;20044;-85
2022/10/31 07:22:58;;;;;;;26.00;20.38;;;9.70;95.90;;;;;;5074537;28;20548;-85
2022/10/31 07:25:24;;;;;;;28.35;21.20;;;9.70;95.90;;;;;;5073862;28;20036;-81
2022/10/31 07:27:50;;;;;;;21.63;17.77;;;9.80;95.90;;;;;;5093645;28;20052;-83
2022/10/31 07:30:18;;;;;;;27.70;21.25;;;9.80;96.00;;;;;;5076315;28;20104;-84
2022/10/31 07:32:50;;;;;;;31.25;22.52;;;9.80;96.10;;;;;;5093093;28;20165;-85
2022/10/31 07:35:21;;;;;;;30.50;23.48;;;9.80;96.10;;;;;;5076256;28;20581;-82
2022/10/31 07:37:48;;;;;;;32.10;24.63;;;9.90;96.20;;;;;;5075707;28;20489;-85
2022/10/31 07:40:14;;;;;;;29.85;21.98;;;9.90;96.30;;;;;;5059600;28;20039;-83
2022/10/31 07:42:42;;;;;;;33.50;22.38;;;9.90;96.40;;;;;;5076062;28;20401;-84
2022/10/31 07:45:10;;;;;;;32.03;23.27;;;10.00;96.40;;;;;;5076048;28;20040;-84
2022/10/31 07:47:49;;;;;;;28.65;21.77;;;10.00;96.30;;;;;;5075831;28;20040;-84
2022/10/31 07:50:18;;;;;;;29.73;22.33;;;10.10;96.30;;;;;;5076063;28;20048;-78
2022/10/31 07:52:44;;;;;;;33.25;22.63;;;10.10;96.20;;;;;;5107364;28;20493;-85
2022/10/31 07:55:10;;;;;;;30.20;21.63;;;10.10;96.20;;;;;;5091711;28;20047;-84
2022/10/31 07:57:36;;;;;;;31.33;22.15;;;10.10;96.20;;;;;;5092569;28;20400;-80
2022/10/31 08:00:07;;;;;;;26.48;20.58;;;10.10;96.10;;;;;;5073177;28;20046;-83
2022/10/31 08:02:33;;;;;;;29.55;22.17;;;10.10;96.10;;;;;;5090045;28;20126;-84
2022/10/31 08:04:59;;;;;;;29.15;23.40;;;10.20;96.20;;;;;;5057211;28;20119;-84
2022/10/31 08:07:25;;;;;;;31.83;23.08;;;10.30;96.20;;;;;;5092611;28;20039;-80
2022/10/31 08:09:51;;;;;;;26.95;18.60;;;10.30;96.20;;;;;;5059817;28;20481;-83
2022/10/31 08:12:18;;;;;;;27.13;20.58;;;10.40;96.20;;;;;;5094670;28;20093;-83
2022/10/31 08:14:44;;;;;;;28.48;20.52;;;10.40;96.30;;;;;;5112469;28;20043;-82
2022/10/31 08:17:10;;;;;;;20.85;17.10;;;10.50;96.40;;;;;;5079054;28;20036;-84
2022/10/31 08:19:36;;;;;;;29.33;23.75;;;10.60;96.40;;;;;;5112724;28;20039;-82
2022/10/31 08:22:02;;;;;;;29.73;23.60;;;10.60;96.50;;;;;;5078961;28;20039;-81
2022/10/31 08:24:27;;;;;;;29.52;23.23;;;10.60;96.50;;;;;;5095693;28;20082;-84
2022/10/31 08:26:53;;;;;;;33.42;24.23;;;10.70;96.60;;;;;;5095914;28;20036;-80
2022/10/31 08:29:19;;;;;;;34.15;24.23;;;10.80;96.60;;;;;;5113025;28;20044;-83
2022/10/31 08:31:44;;;;;;;31.23;23.20;;;10.80;96.50;;;;;;5078764;28;20397;-80
2022/10/31 08:34:11;;;;;;;37.33;26.30;;;10.90;96.60;;;;;;5096260;28;20051;-82
2022/10/31 08:36:37;;;;;;;32.45;24.65;;;11.00;96.80;;;;;;5094567;28;20050;-81
2022/10/31 08:39:03;;;;;;;34.20;25.67;;;11.10;96.70;;;;;;5095228;28;20409;-83
2022/10/31 08:41:29;;;;;;;39.58;32.00;;;11.10;96.60;;;;;;5094892;28;20538;-82
2022/10/31 08:43:55;;;;;;;38.20;28.63;;;11.20;96.70;;;;;;5078658;28;20071;-81
2022/10/31 08:46:21;;;;;;;34.47;26.90;;;11.30;96.50;;;;;;5095069;28;20487;-81
2022/10/31 08:48:50;;;;;;;27.92;22.05;;;11.40;96.60;;;;;;5095406;28;20036;-83
2022/10/31 08:51:16;;;;;;;34.20;27.63;;;11.40;96.60;;;;;;5078253;28;20134;-80
2022/10/31 08:53:41;;;;;;;33.72;27.85;;;11.50;96.70;;;;;;5111992;28;20123;-81
2022/10/31 08:56:07;;;;;;;41.80;32.08;;;11.60;96.70;;;;;;5077577;28;20492;-81
2022/10/31 08:58:33;;;;;;;34.60;29.00;;;11.70;96.60;;;;;;5094225;28;20039;-81
2022/10/31 09:01:00;;;;;;;33.05;26.13;;;11.80;96.70;;;;;;5077346;28;20036;-82
2022/10/31 09:03:32;;;;;;;32.92;24.80;;;11.90;96.50;;;;;;5094630;28;20051;-81
2022/10/31 09:06:05;;;;;;;33.20;24.13;;;12.00;96.50;;;;;;5078043;28;20084;-82
2022/10/31 09:08:32;;;;;;;30.30;21.90;;;12.10;96.30;;;;;;5111667;28;20074;-81
2022/10/31 09:10:58;;;;;;;25.45;19.77;;;12.20;96.30;;;;;;5094382;28;20047;-80
2022/10/31 09:13:24;;;;;;;27.40;22.60;;;12.30;96.10;;;;;;5094068;28;20035;-82
2022/10/31 09:15:51;;;;;;;27.05;22.20;;;12.40;96.00;;;;;;5094407;28;20214;-82
2022/10/31 09:18:19;;;;;;;27.73;20.55;;;12.50;96.00;;;;;;5095658;28;20157;-82
2022/10/31 09:20:47;;;;;;;24.17;18.80;;;12.60;95.80;;;;;;5113771;28;20044;-82
2022/10/31 09:23:21;;;;;;;28.90;20.35;;;12.70;95.70;;;;;;5093492;28;20250;-80
2022/10/31 09:25:49;;;;;;;24.27;19.42;;;12.70;95.50;;;;;;5104418;28;20480;-80
2022/10/31 09:28:17;;;;;;;25.35;20.88;;;12.80;95.40;;;;;;5124265;28;20492;-81
2022/10/31 09:30:46;;;;;;;21.65;18.35;;;12.90;95.30;;;;;;5082161;28;20056;-82
2022/10/31 09:33:13;;;;;;;25.88;20.25;;;13.00;95.20;;;;;;5114592;28;20050;-81
2022/10/31 09:35:40;;;;;;;28.35;21.33;;;13.10;95.10;;;;;;5097699;28;20075;-81
2022/10/31 09:38:18;;;;;;;28.00;21.48;;;13.20;95.10;;;;;;5097913;28;20038;-81
2022/10/31 09:41:22;;;;;;;24.52;19.23;;;13.30;94.90;;;;;;5097119;28;20485;-79
2022/10/31 09:43:56;;;;;;;24.30;19.35;;;13.50;94.70;;;;;;5110963;28;20069;-80
2022/10/31 09:46:35;;;;;;;26.00;20.77;;;13.60;94.40;;;;;;5115179;28;20079;-78
2022/10/31 09:49:16;;;;;;;22.92;18.60;;;13.70;94.20;;;;;;5098164;28;20043;-81
2022/10/31 09:51:47;;;;;;;27.45;19.17;;;13.90;93.80;;;;;;5098416;28;20039;-81
2022/10/31 09:54:36;;;;;;;25.85;20.20;;;13.90;93.90;;;;;;5096872;28;20047;-80
2022/10/31 09:57:03;;;;;;;27.35;18.90;;;13.90;93.70;;;;;;5083873;28;20155;-81
2022/10/31 09:59:38;;;;;;;21.75;17.50;;;13.90;93.50;;;;;;5114764;28;20041;-80
2022/10/31 10:02:10;;;;;;;27.73;21.58;;;13.80;93.40;;;;;;5114520;28;20079;-82
2022/10/31 10:05:00;;;;;;;32.45;22.67;;;13.80;93.60;;;;;;5114735;28;20044;-79
2022/10/31 10:07:32;;;;;;;25.00;19.85;;;13.70;93.50;;;;;;5085713;28;20039;-81
2022/10/31 10:10:01;;;;;;;23.70;17.70;;;13.70;93.80;;;;;;5097466;28;20493;-80
2022/10/31 10:12:42;;;;;;;23.50;19.27;;;13.80;93.70;;;;;;5097732;28;20083;-80
2022/10/31 10:15:51;;;;;;;23.83;19.42;;;13.80;93.50;;;;;;5114076;28;20035;-79
2022/10/31 10:18:30;;;;;;;22.35;18.02;;;13.90;93.50;;;;;;5114283;28;20038;-79
2022/10/31 10:21:28;;;;;;;27.15;20.00;;;13.90;93.80;;;;;;5097062;28;20451;-79
2022/10/31 10:24:09;;;;;;;19.70;16.15;;;14.00;93.60;;;;;;5114995;28;20168;-79
2022/10/31 10:26:43;;;;;;;23.27;18.13;;;14.00;93.70;;;;;;5098386;28;20074;-79
2022/10/31 10:29:17;;;;;;;19.02;16.50;;;14.10;93.40;;;;;;5097123;28;20040;-79
2022/10/31 10:31:46;;;;;;;17.95;15.45;;;14.20;93.00;;;;;;5113456;28;20055;-78
2022/10/31 10:34:33;;;;;;;21.05;15.95;;;14.30;93.10;;;;;;5096207;28;20040;-79
2022/10/31 10:37:10;;;;;;;24.25;16.55;;;14.20;91.60;;;;;;5114104;28;20104;-79
2022/10/31 10:39:45;;;;;;;20.55;15.27;;;14.20;91.90;;;;;;5113906;28;20472;-79
2022/10/31 10:48:08;;;;;;;14.57;11.98;;;14.40;92.30;;;;;;5113814;28;20046;-79
2022/10/31 10:50:38;;;;;;;17.17;13.00;;;14.50;92.10;;;;;;5113620;28;20050;-80
2022/10/31 10:53:36;;;;;;;19.30;13.85;;;14.50;91.90;;;;;;5096789;28;20049;-79
2022/10/31 10:56:16;;;;;;;14.90;10.77;;;14.80;91.50;;;;;;5096351;28;20042;-79
2022/10/31 10:58:42;;;;;;;14.52;10.45;;;14.90;91.30;;;;;;5095761;28;20043;-78
2022/10/31 11:01:15;;;;;;;13.88;10.63;;;14.90;90.00;;;;;;5096518;28;20039;-79
2022/10/31 11:03:41;;;;;;;15.48;12.65;;;15.00;90.50;;;;;;5113655;28;20047;-79
2022/10/31 11:06:21;;;;;;;13.77;11.68;;;15.10;90.50;;;;;;5113204;28;20481;-80
2022/10/31 11:08:48;;;;;;;15.73;11.63;;;15.30;89.90;;;;;;5112900;28;20497;-79
2022/10/31 11:11:17;;;;;;;16.05;12.15;;;15.40;89.70;;;;;;5113271;28;20097;-79
2022/10/31 11:13:45;;;;;;;15.77;12.60;;;15.50;90.00;;;;;;5113361;28;20562;-79
2022/10/31 11:16:34;;;;;;;16.60;12.77;;;15.40;89.20;;;;;;5113177;28;20039;-79
2022/10/31 11:19:13;;;;;;;19.13;14.43;;;15.40;89.30;;;;;;5096116;28;20040;-79
2022/10/31 11:21:38;;;;;;;16.55;13.13;;;15.60;89.10;;;;;;5112351;28;20075;-78
2022/10/31 11:24:27;;;;;;;13.85;11.57;;;15.70;89.30;;;;;;5095461;28;20062;-80
2022/10/31 11:27:29;;;;;;;17.08;12.15;;;15.80;89.30;;;;;;5112375;28;20089;-79
2022/10/31 11:30:05;;;;;;;15.65;13.10;;;15.90;89.20;;;;;;5090390;28;20039;-78
2022/10/31 11:32:32;;;;;;;17.20;12.07;;;15.90;88.50;;;;;;5095257;28;20059;-79
2022/10/31 11:35:01;;;;;;;15.70;11.75;;;16.00;88.50;;;;;;5095943;28;20050;-79
2022/10/31 11:37:29;;;;;;;18.20;12.70;;;16.00;87.70;;;;;;5095917;28;20075;-78
2022/10/31 11:39:58;;;;;;;15.38;11.57;;;16.00;87.60;;;;;;5112385;28;20501;-80
2022/10/31 11:42:34;;;;;;;14.90;12.00;;;15.90;86.60;;;;;;5095542;28;20439;-79
2022/10/31 11:45:07;;;;;;;15.02;11.75;;;15.80;86.30;;;;;;5112871;28;20126;-80
2022/10/31 11:47:33;;;;;;;17.10;13.38;;;15.90;87.60;;;;;;5094951;28;20079;-79
2022/10/31 11:50:08;;;;;;;17.85;13.57;;;15.80;86.20;;;;;;5112368;28;20118;-80
2022/10/31 11:52:38;;;;;;;18.20;14.18;;;15.70;86.30;;;;;;5090455;28;20067;-79
2022/10/31 11:55:10;;;;;;;18.88;14.88;;;15.70;87.60;;;;;;5091888;28;20047;-79
2022/10/31 11:57:47;;;;;;;20.50;15.18;;;15.60;87.30;;;;;;5075376;28;20043;-79
2022/10/31 12:00:30;;;;;;;21.77;16.70;;;15.50;87.20;;;;;;5082633;28;20028;-80
2022/10/31 12:03:13;;;;;;;21.27;14.85;;;15.40;87.60;;;;;;5095151;28;20122;-80
2022/10/31 12:05:41;;;;;;;21.90;16.92;;;15.40;87.70;;;;;;5112217;28;20043;-79
2022/10/31 12:08:10;;;;;;;21.67;16.35;;;15.40;87.90;;;;;;5095628;28;20036;-79
2022/10/31 12:10:48;;;;;;;20.90;16.58;;;15.50;88.10;;;;;;5095239;28;20126;-79
2022/10/31 12:13:32;;;;;;;23.20;17.33;;;15.60;88.50;;;;;;5095405;28;20040;-80
2022/10/31 12:16:20;;;;;;;22.80;18.20;;;15.70;88.40;;;;;;5094833;28;20510;-79
2022/10/31 12:19:00;;;;;;;20.45;16.70;;;16.00;88.30;;;;;;5094488;28;20062;-79
2022/10/31 12:21:26;;;;;;;24.95;16.75;;;16.30;88.00;;;;;;5112257;28;20040;-79
2022/10/31 12:24:30;;;;;;;21.17;15.05;;;16.60;87.00;;;;;;5094734;28;20046;-79
2022/10/31 12:27:03;;;;;;;23.50;15.93;;;16.90;86.70;;;;;;5111868;28;20040;-79
2022/10/31 12:29:34;;;;;;;17.00;13.73;;;17.10;86.20;;;;;;5111491;28;20507;-79
2022/10/31 12:32:21;;;;;;;20.90;14.38;;;17.10;84.90;;;;;;5111932;28;20052;-79
2022/10/31 12:35:01;;;;;;;19.38;13.32;;;17.00;84.80;;;;;;5112184;28;20439;-79
2022/10/31 12:37:57;;;;;;;20.50;14.45;;;16.90;85.50;;;;;;5111420;28;20047;-79
2022/10/31 12:40:51;;;;;;;18.25;13.13;;;16.90;85.10;;;;;;5111420;28;20054;-79
2022/10/31 12:43:35;;;;;;;16.65;13.70;;;17.10;85.70;;;;;;5111541;28;20047;-79
2022/10/31 12:46:02;;;;;;;16.02;12.13;;;17.40;84.90;;;;;;5111763;28;20484;-78
2022/10/31 12:49:00;;;;;;;16.15;10.82;;;17.50;85.50;;;;;;5111566;28;20044;-76
2022/10/31 12:51:44;;;;;;;14.65;10.73;;;17.70;85.00;;;;;;5058215;28;20111;-77
2022/10/31 12:54:33;;;;;;;11.60;8.35;;;17.70;83.80;;;;;;5128333;28;20047;-77